sensor_id;sensor_type;location;lat;lon;timestamp;P1;durP1;ratioP1;P2;durP2;ratioP2
33453;SDS011;39400;49.744;7.012;2022-09-13T00:02:19;2.60;;;1.65;;
33453;SDS011;39400;49.744;7.012;2022-09-13T00:04:46;2.40;;;1.50;;
33453;SDS011;39400;49.744;7.012;2022-09-13T00:07:13;1.50;;;1.40;;
33453;SDS011;39400;49.744;7.012;2022-09-13T00:09:41;3.80;;;1.70;;
33453;SDS011;39400;49.744;7.012;2022-09-13T00:12:08;3.13;;;1.63;;
33453;SDS011;39400;49.744;7.012;2022-09-13T00:14:35;3.85;;;1.45;;
33453;SDS011;39400;49.744;7.012;2022-09-13T00:17:02;2.45;;;1.80;;
33453;SDS011;39400;49.744;7.012;2022-09-13T00:19:29;1.98;;;1.60;;
33453;SDS011;39400;49.744;7.012;2022-09-13T00:21:57;4.25;;;1.42;;
33453;SDS011;39400;49.744;7.012;2022-09-13T00:24:24;2.40;;;1.70;;
33453;SDS011;39400;49.744;7.012;2022-09-13T00:26:51;2.13;;;1.42;;
33453;SDS011;39400;49.744;7.012;2022-09-13T00:29:18;3.40;;;1.92;;
33453;SDS011;39400;49.744;7.012;2022-09-13T00:31:46;2.50;;;1.40;;
33453;SDS011;39400;49.744;7.012;2022-09-13T00:34:13;2.88;;;1.90;;
33453;SDS011;39400;49.744;7.012;2022-09-13T00:36:40;4.43;;;2.60;;
33453;SDS011;39400;49.744;7.012;2022-09-13T00:39:08;2.05;;;1.42;;
33453;SDS011;39400;49.744;7.012;2022-09-13T00:41:38;4.63;;;1.70;;
33453;SDS011;39400;49.744;7.012;2022-09-13T00:44:41;3.22;;;1.92;;
33453;SDS011;39400;49.744;7.012;2022-09-13T00:47:11;1.77;;;1.33;;
33453;SDS011;39400;49.744;7.012;2022-09-13T00:49:44;1.80;;;1.27;;
33453;SDS011;39400;49.744;7.012;2022-09-13T00:52:17;2.53;;;1.60;;
33453;SDS011;39400;49.744;7.012;2022-09-13T00:54:49;2.40;;;1.48;;
33453;SDS011;39400;49.744;7.012;2022-09-13T00:57:23;2.88;;;1.83;;
33453;SDS011;39400;49.744;7.012;2022-09-13T01:00:13;2.30;;;2.00;;
33453;SDS011;39400;49.744;7.012;2022-09-13T01:02:42;2.95;;;1.55;;
33453;SDS011;39400;49.744;7.012;2022-09-13T01:05:13;3.00;;;1.77;;
33453;SDS011;39400;49.744;7.012;2022-09-13T01:07:42;3.67;;;2.38;;
33453;SDS011;39400;49.744;7.012;2022-09-13T01:10:10;2.65;;;1.90;;
33453;SDS011;39400;49.744;7.012;2022-09-13T01:12:49;4.40;;;2.00;;
33453;SDS011;39400;49.744;7.012;2022-09-13T01:15:22;1.95;;;1.77;;
33453;SDS011;39400;49.744;7.012;2022-09-13T01:17:49;2.25;;;1.80;;
33453;SDS011;39400;49.744;7.012;2022-09-13T01:20:18;4.07;;;1.85;;
33453;SDS011;39400;49.744;7.012;2022-09-13T01:25:44;2.00;;;1.65;;
33453;SDS011;39400;49.744;7.012;2022-09-13T01:40:04;2.13;;;1.58;;
33453;SDS011;39400;49.744;7.012;2022-09-13T01:50:38;2.05;;;1.27;;
33453;SDS011;39400;49.744;7.012;2022-09-13T01:58:40;2.55;;;1.42;;
33453;SDS011;39400;49.744;7.012;2022-09-13T02:01:30;1.83;;;1.20;;
33453;SDS011;39400;49.744;7.012;2022-09-13T02:04:06;2.55;;;1.50;;
33453;SDS011;39400;49.744;7.012;2022-09-13T02:06:43;4.40;;;1.40;;
33453;SDS011;39400;49.744;7.012;2022-09-13T02:09:17;2.40;;;1.50;;
33453;SDS011;39400;49.744;7.012;2022-09-13T02:12:02;2.58;;;1.67;;
33453;SDS011;39400;49.744;7.012;2022-09-13T02:14:36;2.58;;;1.60;;
33453;SDS011;39400;49.744;7.012;2022-09-13T02:17:05;2.38;;;1.90;;
33453;SDS011;39400;49.744;7.012;2022-09-13T02:19:39;2.17;;;1.67;;
33453;SDS011;39400;49.744;7.012;2022-09-13T02:22:10;3.28;;;1.13;;
33453;SDS011;39400;49.744;7.012;2022-09-13T02:24:41;1.55;;;1.40;;
33453;SDS011;39400;49.744;7.012;2022-09-13T02:27:13;1.83;;;1.30;;
33453;SDS011;39400;49.744;7.012;2022-09-13T02:29:45;2.05;;;1.63;;
33453;SDS011;39400;49.744;7.012;2022-09-13T02:35:05;3.60;;;1.70;;
33453;SDS011;39400;49.744;7.012;2022-09-13T02:37:38;2.17;;;1.60;;
33453;SDS011;39400;49.744;7.012;2022-09-13T02:40:08;2.40;;;1.65;;
33453;SDS011;39400;49.744;7.012;2022-09-13T02:42:45;2.67;;;1.60;;
33453;SDS011;39400;49.744;7.012;2022-09-13T02:45:24;2.17;;;1.60;;
33453;SDS011;39400;49.744;7.012;2022-09-13T02:47:59;2.17;;;1.58;;
33453;SDS011;39400;49.744;7.012;2022-09-13T02:50:45;2.00;;;1.30;;
33453;SDS011;39400;49.744;7.012;2022-09-13T02:58:55;2.38;;;1.13;;
33453;SDS011;39400;49.744;7.012;2022-09-13T03:04:27;2.97;;;1.52;;
33453;SDS011;39400;49.744;7.012;2022-09-13T03:06:54;3.78;;;1.10;;
33453;SDS011;39400;49.744;7.012;2022-09-13T03:09:22;2.70;;;1.10;;
33453;SDS011;39400;49.744;7.012;2022-09-13T03:20:02;4.93;;;1.00;;
33453;SDS011;39400;49.744;7.012;2022-09-13T03:23:03;1.38;;;1.10;;
33453;SDS011;39400;49.744;7.012;2022-09-13T03:31:12;4.15;;;0.90;;
33453;SDS011;39400;49.744;7.012;2022-09-13T03:33:51;3.28;;;0.98;;
33453;SDS011;39400;49.744;7.012;2022-09-13T03:36:42;4.22;;;1.17;;
33453;SDS011;39400;49.744;7.012;2022-09-13T03:41:59;1.45;;;1.00;;
33453;SDS011;39400;49.744;7.012;2022-09-13T03:44:31;2.45;;;1.30;;
33453;SDS011;39400;49.744;7.012;2022-09-13T03:47:02;1.00;;;0.90;;
33453;SDS011;39400;49.744;7.012;2022-09-13T03:49:32;1.52;;;1.30;;
33453;SDS011;39400;49.744;7.012;2022-09-13T03:52:03;4.10;;;1.20;;
33453;SDS011;39400;49.744;7.012;2022-09-13T03:54:30;1.23;;;0.80;;
33453;SDS011;39400;49.744;7.012;2022-09-13T03:59:34;2.67;;;0.70;;
33453;SDS011;39400;49.744;7.012;2022-09-13T04:02:04;2.20;;;0.70;;
33453;SDS011;39400;49.744;7.012;2022-09-13T04:04:34;1.15;;;0.90;;
33453;SDS011;39400;49.744;7.012;2022-09-13T04:07:01;1.80;;;1.00;;
33453;SDS011;39400;49.744;7.012;2022-09-13T04:09:30;1.80;;;1.08;;
33453;SDS011;39400;49.744;7.012;2022-09-13T04:11:57;1.30;;;1.10;;
33453;SDS011;39400;49.744;7.012;2022-09-13T04:14:24;1.67;;;1.13;;
33453;SDS011;39400;49.744;7.012;2022-09-13T04:16:55;1.25;;;0.88;;
33453;SDS011;39400;49.744;7.012;2022-09-13T04:19:24;0.93;;;0.70;;
33453;SDS011;39400;49.744;7.012;2022-09-13T04:21:52;0.98;;;0.90;;
33453;SDS011;39400;49.744;7.012;2022-09-13T04:24:22;1.52;;;0.90;;
33453;SDS011;39400;49.744;7.012;2022-09-13T04:26:53;3.10;;;0.90;;
33453;SDS011;39400;49.744;7.012;2022-09-13T04:29:22;2.28;;;1.30;;
33453;SDS011;39400;49.744;7.012;2022-09-13T04:31:51;1.52;;;1.00;;
33453;SDS011;39400;49.744;7.012;2022-09-13T04:34:20;1.85;;;0.93;;
33453;SDS011;39400;49.744;7.012;2022-09-13T04:36:50;3.53;;;1.02;;
33453;SDS011;39400;49.744;7.012;2022-09-13T04:39:18;1.63;;;1.25;;
33453;SDS011;39400;49.744;7.012;2022-09-13T04:41:46;4.45;;;1.20;;
33453;SDS011;39400;49.744;7.012;2022-09-13T04:44:15;1.55;;;1.00;;
33453;SDS011;39400;49.744;7.012;2022-09-13T04:46:45;3.45;;;1.15;;
33453;SDS011;39400;49.744;7.012;2022-09-13T04:49:14;3.40;;;1.15;;
33453;SDS011;39400;49.744;7.012;2022-09-13T04:51:42;2.40;;;0.75;;
33453;SDS011;39400;49.744;7.012;2022-09-13T04:54:10;1.63;;;1.00;;
33453;SDS011;39400;49.744;7.012;2022-09-13T04:56:42;1.67;;;0.95;;
33453;SDS011;39400;49.744;7.012;2022-09-13T04:59:09;1.77;;;1.27;;
33453;SDS011;39400;49.744;7.012;2022-09-13T05:01:37;1.30;;;1.05;;
33453;SDS011;39400;49.744;7.012;2022-09-13T05:04:06;2.30;;;1.13;;
33453;SDS011;39400;49.744;7.012;2022-09-13T05:06:33;1.50;;;1.10;;
33453;SDS011;39400;49.744;7.012;2022-09-13T05:09:01;4.50;;;1.30;;
33453;SDS011;39400;49.744;7.012;2022-09-13T05:11:29;1.30;;;0.95;;
33453;SDS011;39400;49.744;7.012;2022-09-13T05:13:57;1.92;;;1.38;;
33453;SDS011;39400;49.744;7.012;2022-09-13T05:16:29;7.45;;;1.58;;
33453;SDS011;39400;49.744;7.012;2022-09-13T05:18:58;1.75;;;1.42;;
33453;SDS011;39400;49.744;7.012;2022-09-13T05:21:26;2.20;;;1.60;;
33453;SDS011;39400;49.744;7.012;2022-09-13T05:23:54;3.10;;;1.55;;
33453;SDS011;39400;49.744;7.012;2022-09-13T05:26:22;1.98;;;1.33;;
33453;SDS011;39400;49.744;7.012;2022-09-13T05:28:51;1.38;;;1.05;;
33453;SDS011;39400;49.744;7.012;2022-09-13T05:31:19;3.10;;;1.45;;
33453;SDS011;39400;49.744;7.012;2022-09-13T05:33:55;1.40;;;1.10;;
33453;SDS011;39400;49.744;7.012;2022-09-13T05:36:24;3.08;;;1.40;;
33453;SDS011;39400;49.744;7.012;2022-09-13T05:38:52;2.70;;;1.30;;
33453;SDS011;39400;49.744;7.012;2022-09-13T05:41:40;2.53;;;1.30;;
33453;SDS011;39400;49.744;7.012;2022-09-13T05:44:07;2.30;;;1.67;;
33453;SDS011;39400;49.744;7.012;2022-09-13T05:46:39;1.52;;;1.08;;
33453;SDS011;39400;49.744;7.012;2022-09-13T05:49:08;2.60;;;1.20;;
33453;SDS011;39400;49.744;7.012;2022-09-13T05:51:35;4.22;;;1.30;;
33453;SDS011;39400;49.744;7.012;2022-09-13T05:54:02;1.75;;;0.98;;
33453;SDS011;39400;49.744;7.012;2022-09-13T05:56:29;1.92;;;1.42;;
33453;SDS011;39400;49.744;7.012;2022-09-13T05:58:57;3.23;;;1.20;;
33453;SDS011;39400;49.744;7.012;2022-09-13T06:01:26;0.77;;;0.70;;
33453;SDS011;39400;49.744;7.012;2022-09-13T06:03:55;0.80;;;0.80;;
33453;SDS011;39400;49.744;7.012;2022-09-13T06:06:24;1.40;;;0.90;;
33453;SDS011;39400;49.744;7.012;2022-09-13T06:08:52;2.30;;;1.40;;
33453;SDS011;39400;49.744;7.012;2022-09-13T06:11:20;4.65;;;0.80;;
33453;SDS011;39400;49.744;7.012;2022-09-13T06:13:48;1.52;;;0.88;;
33453;SDS011;39400;49.744;7.012;2022-09-13T06:16:16;1.30;;;0.88;;
33453;SDS011;39400;49.744;7.012;2022-09-13T06:18:43;1.95;;;1.25;;
33453;SDS011;39400;49.744;7.012;2022-09-13T06:21:12;1.75;;;0.82;;
33453;SDS011;39400;49.744;7.012;2022-09-13T06:23:48;8.18;;;0.90;;
33453;SDS011;39400;49.744;7.012;2022-09-13T06:26:20;1.10;;;0.73;;
33453;SDS011;39400;49.744;7.012;2022-09-13T06:28:50;2.65;;;1.10;;
33453;SDS011;39400;49.744;7.012;2022-09-13T06:31:20;0.82;;;0.80;;
33453;SDS011;39400;49.744;7.012;2022-09-13T06:33:48;0.65;;;0.60;;
33453;SDS011;39400;49.744;7.012;2022-09-13T06:36:23;1.60;;;1.20;;
33453;SDS011;39400;49.744;7.012;2022-09-13T06:38:50;0.90;;;0.65;;
33453;SDS011;39400;49.744;7.012;2022-09-13T06:41:18;0.80;;;0.73;;
33453;SDS011;39400;49.744;7.012;2022-09-13T06:43:51;2.75;;;1.48;;
33453;SDS011;39400;49.744;7.012;2022-09-13T06:46:26;1.65;;;1.13;;
33453;SDS011;39400;49.744;7.012;2022-09-13T06:48:57;2.33;;;1.45;;
33453;SDS011;39400;49.744;7.012;2022-09-13T06:51:26;8.60;;;0.85;;
33453;SDS011;39400;49.744;7.012;2022-09-13T06:56:24;1.45;;;0.90;;
33453;SDS011;39400;49.744;7.012;2022-09-13T06:58:56;1.42;;;0.90;;
33453;SDS011;39400;49.744;7.012;2022-09-13T07:01:29;1.35;;;1.05;;
33453;SDS011;39400;49.744;7.012;2022-09-13T07:04:16;4.25;;;0.90;;
33453;SDS011;39400;49.744;7.012;2022-09-13T07:06:46;1.65;;;0.70;;
33453;SDS011;39400;49.744;7.012;2022-09-13T07:11:44;1.75;;;1.00;;
33453;SDS011;39400;49.744;7.012;2022-09-13T07:14:16;1.73;;;0.88;;
33453;SDS011;39400;49.744;7.012;2022-09-13T07:16:49;0.93;;;0.63;;
33453;SDS011;39400;49.744;7.012;2022-09-13T07:19:18;1.60;;;1.20;;
33453;SDS011;39400;49.744;7.012;2022-09-13T07:21:48;0.88;;;0.82;;
33453;SDS011;39400;49.744;7.012;2022-09-13T07:24:16;1.92;;;0.60;;
33453;SDS011;39400;49.744;7.012;2022-09-13T07:26:45;4.18;;;1.00;;
33453;SDS011;39400;49.744;7.012;2022-09-13T07:29:13;2.15;;;0.80;;
33453;SDS011;39400;49.744;7.012;2022-09-13T07:31:43;5.30;;;1.45;;
33453;SDS011;39400;49.744;7.012;2022-09-13T07:34:13;2.10;;;1.52;;
33453;SDS011;39400;49.744;7.012;2022-09-13T07:36:42;1.67;;;1.15;;
33453;SDS011;39400;49.744;7.012;2022-09-13T07:39:09;4.50;;;1.40;;
33453;SDS011;39400;49.744;7.012;2022-09-13T07:41:41;1.95;;;1.10;;
33453;SDS011;39400;49.744;7.012;2022-09-13T07:44:09;3.90;;;1.30;;
33453;SDS011;39400;49.744;7.012;2022-09-13T07:46:37;3.55;;;2.55;;
33453;SDS011;39400;49.744;7.012;2022-09-13T07:49:12;7.15;;;2.25;;
33453;SDS011;39400;49.744;7.012;2022-09-13T07:51:42;3.30;;;1.95;;
33453;SDS011;39400;49.744;7.012;2022-09-13T07:54:11;2.17;;;1.20;;
33453;SDS011;39400;49.744;7.012;2022-09-13T07:56:40;2.10;;;1.10;;
33453;SDS011;39400;49.744;7.012;2022-09-13T07:59:14;1.77;;;0.90;;
33453;SDS011;39400;49.744;7.012;2022-09-13T08:01:46;0.80;;;0.80;;
33453;SDS011;39400;49.744;7.012;2022-09-13T08:04:16;3.47;;;1.38;;
33453;SDS011;39400;49.744;7.012;2022-09-13T08:06:45;3.50;;;1.30;;
33453;SDS011;39400;49.744;7.012;2022-09-13T08:09:13;3.33;;;1.38;;
33453;SDS011;39400;49.744;7.012;2022-09-13T08:11:42;1.55;;;0.73;;
33453;SDS011;39400;49.744;7.012;2022-09-13T08:14:15;2.83;;;1.05;;
33453;SDS011;39400;49.744;7.012;2022-09-13T08:16:43;1.02;;;0.93;;
33453;SDS011;39400;49.744;7.012;2022-09-13T08:19:12;2.17;;;1.23;;
33453;SDS011;39400;49.744;7.012;2022-09-13T08:21:41;1.90;;;0.90;;
33453;SDS011;39400;49.744;7.012;2022-09-13T08:24:14;2.07;;;1.37;;
33453;SDS011;39400;49.744;7.012;2022-09-13T08:26:42;4.72;;;1.30;;
33453;SDS011;39400;49.744;7.012;2022-09-13T08:29:10;4.90;;;1.30;;
33453;SDS011;39400;49.744;7.012;2022-09-13T08:31:38;2.40;;;0.90;;
33453;SDS011;39400;49.744;7.012;2022-09-13T08:34:06;1.50;;;0.80;;
33453;SDS011;39400;49.744;7.012;2022-09-13T08:36:37;2.50;;;1.10;;
33453;SDS011;39400;49.744;7.012;2022-09-13T08:39:06;2.10;;;1.02;;
33453;SDS011;39400;49.744;7.012;2022-09-13T08:44:13;1.23;;;1.00;;
33453;SDS011;39400;49.744;7.012;2022-09-13T08:47:02;4.15;;;0.98;;
33453;SDS011;39400;49.744;7.012;2022-09-13T08:49:42;1.40;;;0.90;;
33453;SDS011;39400;49.744;7.012;2022-09-13T08:55:24;6.38;;;1.20;;
33453;SDS011;39400;49.744;7.012;2022-09-13T08:58:14;1.75;;;1.23;;
33453;SDS011;39400;49.744;7.012;2022-09-13T09:00:58;1.13;;;0.90;;
33453;SDS011;39400;49.744;7.012;2022-09-13T09:03:41;3.40;;;1.15;;
33453;SDS011;39400;49.744;7.012;2022-09-13T09:06:15;3.00;;;1.27;;
33453;SDS011;39400;49.744;7.012;2022-09-13T09:08:47;7.47;;;1.37;;
33453;SDS011;39400;49.744;7.012;2022-09-13T09:14:05;1.58;;;1.30;;
33453;SDS011;39400;49.744;7.012;2022-09-13T09:16:50;1.27;;;1.00;;
33453;SDS011;39400;49.744;7.012;2022-09-13T09:19:25;1.10;;;1.00;;
33453;SDS011;39400;49.744;7.012;2022-09-13T09:22:03;1.13;;;0.93;;
33453;SDS011;39400;49.744;7.012;2022-09-13T09:24:38;1.63;;;1.38;;
33453;SDS011;39400;49.744;7.012;2022-09-13T09:27:12;1.23;;;0.85;;
33453;SDS011;39400;49.744;7.012;2022-09-13T09:29:41;1.88;;;0.93;;
33453;SDS011;39400;49.744;7.012;2022-09-13T09:34:56;3.50;;;1.80;;
33453;SDS011;39400;49.744;7.012;2022-09-13T09:37:35;3.92;;;1.40;;
33453;SDS011;39400;49.744;7.012;2022-09-13T09:40:03;1.02;;;0.90;;
33453;SDS011;39400;49.744;7.012;2022-09-13T09:42:46;2.70;;;1.08;;
33453;SDS011;39400;49.744;7.012;2022-09-13T09:47:59;1.90;;;1.05;;
33453;SDS011;39400;49.744;7.012;2022-09-13T09:50:33;3.10;;;1.25;;
33453;SDS011;39400;49.744;7.012;2022-09-13T09:55:42;1.60;;;1.33;;
33453;SDS011;39400;49.744;7.012;2022-09-13T09:58:12;5.78;;;1.48;;
33453;SDS011;39400;49.744;7.012;2022-09-13T10:00:51;1.55;;;1.30;;
33453;SDS011;39400;49.744;7.012;2022-09-13T10:03:27;5.97;;;1.38;;
33453;SDS011;39400;49.744;7.012;2022-09-13T10:06:31;5.10;;;1.95;;
33453;SDS011;39400;49.744;7.012;2022-09-13T10:09:00;3.38;;;1.23;;
33453;SDS011;39400;49.744;7.012;2022-09-13T10:11:48;2.40;;;1.25;;
33453;SDS011;39400;49.744;7.012;2022-09-13T10:17:16;3.22;;;1.10;;
33453;SDS011;39400;49.744;7.012;2022-09-13T10:19:50;4.13;;;1.53;;
33453;SDS011;39400;49.744;7.012;2022-09-13T10:22:25;5.63;;;1.73;;
33453;SDS011;39400;49.744;7.012;2022-09-13T10:24:54;8.80;;;1.83;;
33453;SDS011;39400;49.744;7.012;2022-09-13T10:27:32;3.35;;;1.42;;
33453;SDS011;39400;49.744;7.012;2022-09-13T10:30:03;4.82;;;1.77;;
33453;SDS011;39400;49.744;7.012;2022-09-13T10:32:32;2.97;;;1.55;;
33453;SDS011;39400;49.744;7.012;2022-09-13T10:35:06;1.83;;;1.20;;
33453;SDS011;39400;49.744;7.012;2022-09-13T10:37:42;1.60;;;1.40;;
33453;SDS011;39400;49.744;7.012;2022-09-13T10:42:56;1.42;;;1.33;;
33453;SDS011;39400;49.744;7.012;2022-09-13T10:47:54;2.00;;;1.20;;
33453;SDS011;39400;49.744;7.012;2022-09-13T10:50:29;2.17;;;1.35;;
33453;SDS011;39400;49.744;7.012;2022-09-13T10:53:01;3.78;;;1.20;;
33453;SDS011;39400;49.744;7.012;2022-09-13T11:00:46;1.00;;;0.75;;
33453;SDS011;39400;49.744;7.012;2022-09-13T11:17:20;1.35;;;0.75;;
33453;SDS011;39400;49.744;7.012;2022-09-13T11:19:57;1.27;;;0.80;;
33453;SDS011;39400;49.744;7.012;2022-09-13T11:25:34;6.15;;;1.48;;
33453;SDS011;39400;49.744;7.012;2022-09-13T11:28:26;2.70;;;1.40;;
33453;SDS011;39400;49.744;7.012;2022-09-13T11:36:09;1.23;;;0.90;;
33453;SDS011;39400;49.744;7.012;2022-09-13T11:39:06;2.25;;;1.05;;
33453;SDS011;39400;49.744;7.012;2022-09-13T11:41:48;4.45;;;1.33;;
33453;SDS011;39400;49.744;7.012;2022-09-13T11:45:05;4.90;;;1.05;;
33453;SDS011;39400;49.744;7.012;2022-09-13T11:58:15;1.58;;;1.05;;
33453;SDS011;39400;49.744;7.012;2022-09-13T12:00:53;1.83;;;1.25;;
33453;SDS011;39400;49.744;7.012;2022-09-13T12:06:01;3.53;;;0.90;;
33453;SDS011;39400;49.744;7.012;2022-09-13T12:11:08;1.85;;;0.95;;
33453;SDS011;39400;49.744;7.012;2022-09-13T12:13:55;2.95;;;1.05;;
33453;SDS011;39400;49.744;7.012;2022-09-13T12:16:27;2.17;;;1.20;;
33453;SDS011;39400;49.744;7.012;2022-09-13T12:21:56;4.53;;;1.20;;
33453;SDS011;39400;49.744;7.012;2022-09-13T12:30:18;5.65;;;1.15;;
33453;SDS011;39400;49.744;7.012;2022-09-13T12:32:47;0.90;;;0.80;;
33453;SDS011;39400;49.744;7.012;2022-09-13T12:35:18;2.38;;;0.75;;
33453;SDS011;39400;49.744;7.012;2022-09-13T12:41:02;3.30;;;0.90;;
33453;SDS011;39400;49.744;7.012;2022-09-13T12:43:48;1.27;;;0.98;;
33453;SDS011;39400;49.744;7.012;2022-09-13T12:49:33;1.15;;;0.80;;
33453;SDS011;39400;49.744;7.012;2022-09-13T12:52:29;1.10;;;0.70;;
33453;SDS011;39400;49.744;7.012;2022-09-13T13:01:19;1.70;;;0.90;;
33453;SDS011;39400;49.744;7.012;2022-09-13T13:03:50;1.92;;;1.08;;
33453;SDS011;39400;49.744;7.012;2022-09-13T13:06:33;1.25;;;0.80;;
33453;SDS011;39400;49.744;7.012;2022-09-13T13:09:27;1.20;;;1.00;;
33453;SDS011;39400;49.744;7.012;2022-09-13T13:11:54;2.45;;;0.98;;
33453;SDS011;39400;49.744;7.012;2022-09-13T13:14:25;1.25;;;0.70;;
33453;SDS011;39400;49.744;7.012;2022-09-13T13:17:32;3.80;;;1.48;;
33453;SDS011;39400;49.744;7.012;2022-09-13T13:33:48;1.95;;;0.80;;
33453;SDS011;39400;49.744;7.012;2022-09-13T13:36:21;1.75;;;1.20;;
33453;SDS011;39400;49.744;7.012;2022-09-13T13:38:50;1.00;;;0.90;;
33453;SDS011;39400;49.744;7.012;2022-09-13T13:43:59;2.55;;;0.90;;
33453;SDS011;39400;49.744;7.012;2022-09-13T13:46:30;0.93;;;0.70;;
33453;SDS011;39400;49.744;7.012;2022-09-13T13:57:32;1.95;;;0.90;;
33453;SDS011;39400;49.744;7.012;2022-09-13T14:00:13;0.70;;;0.70;;
33453;SDS011;39400;49.744;7.012;2022-09-13T14:02:49;0.60;;;0.60;;
33453;SDS011;39400;49.744;7.012;2022-09-13T14:05:51;1.77;;;1.00;;
33453;SDS011;39400;49.744;7.012;2022-09-13T14:20:08;2.35;;;1.00;;
33453;SDS011;39400;49.744;7.012;2022-09-13T14:22:42;1.15;;;0.82;;
33453;SDS011;39400;49.744;7.012;2022-09-13T14:25:15;8.45;;;1.10;;
33453;SDS011;39400;49.744;7.012;2022-09-13T14:27:49;0.90;;;0.82;;
33453;SDS011;39400;49.744;7.012;2022-09-13T14:30:30;1.67;;;1.00;;
33453;SDS011;39400;49.744;7.012;2022-09-13T14:33:01;0.73;;;0.60;;
33453;SDS011;39400;49.744;7.012;2022-09-13T14:35:32;2.05;;;0.73;;
33453;SDS011;39400;49.744;7.012;2022-09-13T14:38:24;0.85;;;0.70;;
33453;SDS011;39400;49.744;7.012;2022-09-13T14:40:57;1.02;;;0.70;;
33453;SDS011;39400;49.744;7.012;2022-09-13T14:43:27;2.83;;;0.80;;
33453;SDS011;39400;49.744;7.012;2022-09-13T14:46:01;1.17;;;1.00;;
33453;SDS011;39400;49.744;7.012;2022-09-13T14:48:39;23.10;;;3.70;;
33453;SDS011;39400;49.744;7.012;2022-09-13T14:51:20;1.52;;;0.95;;
33453;SDS011;39400;49.744;7.012;2022-09-13T14:54:12;0.98;;;0.88;;
33453;SDS011;39400;49.744;7.012;2022-09-13T14:56:47;2.67;;;1.13;;
33453;SDS011;39400;49.744;7.012;2022-09-13T14:59:35;3.13;;;0.82;;
33453;SDS011;39400;49.744;7.012;2022-09-13T15:02:16;4.20;;;1.02;;
33453;SDS011;39400;49.744;7.012;2022-09-13T15:04:47;1.77;;;0.75;;
33453;SDS011;39400;49.744;7.012;2022-09-13T15:07:19;1.48;;;0.90;;
33453;SDS011;39400;49.744;7.012;2022-09-13T15:10:05;2.10;;;0.70;;
33453;SDS011;39400;49.744;7.012;2022-09-13T15:18:02;1.20;;;0.80;;
33453;SDS011;39400;49.744;7.012;2022-09-13T15:28:31;1.27;;;0.95;;
33453;SDS011;39400;49.744;7.012;2022-09-13T15:31:00;1.83;;;0.90;;
33453;SDS011;39400;49.744;7.012;2022-09-13T15:33:29;1.55;;;1.10;;
33453;SDS011;39400;49.744;7.012;2022-09-13T15:36:13;1.80;;;0.80;;
33453;SDS011;39400;49.744;7.012;2022-09-13T15:44:01;1.42;;;0.90;;
33453;SDS011;39400;49.744;7.012;2022-09-13T15:46:30;3.28;;;0.90;;
33453;SDS011;39400;49.744;7.012;2022-09-13T15:49:01;1.38;;;0.90;;
33453;SDS011;39400;49.744;7.012;2022-09-13T15:51:29;3.17;;;0.90;;
33453;SDS011;39400;49.744;7.012;2022-09-13T15:54:05;3.42;;;0.90;;
33453;SDS011;39400;49.744;7.012;2022-09-13T15:56:40;0.63;;;0.63;;
33453;SDS011;39400;49.744;7.012;2022-09-13T15:59:18;2.33;;;1.40;;
33453;SDS011;39400;49.744;7.012;2022-09-13T16:01:47;1.27;;;1.08;;
33453;SDS011;39400;49.744;7.012;2022-09-13T16:04:16;1.77;;;0.90;;
33453;SDS011;39400;49.744;7.012;2022-09-13T16:06:44;6.53;;;1.25;;
33453;SDS011;39400;49.744;7.012;2022-09-13T16:09:22;5.95;;;1.30;;
33453;SDS011;39400;49.744;7.012;2022-09-13T16:11:50;4.20;;;1.00;;
33453;SDS011;39400;49.744;7.012;2022-09-13T16:14:20;3.15;;;0.88;;
33453;SDS011;39400;49.744;7.012;2022-09-13T16:16:47;1.35;;;0.90;;
33453;SDS011;39400;49.744;7.012;2022-09-13T16:19:16;2.65;;;1.10;;
33453;SDS011;39400;49.744;7.012;2022-09-13T16:21:47;4.57;;;1.02;;
33453;SDS011;39400;49.744;7.012;2022-09-13T16:24:15;1.42;;;0.90;;
33453;SDS011;39400;49.744;7.012;2022-09-13T16:26:42;2.10;;;1.25;;
33453;SDS011;39400;49.744;7.012;2022-09-13T16:29:10;2.63;;;1.50;;
33453;SDS011;39400;49.744;7.012;2022-09-13T16:31:38;1.57;;;0.90;;
33453;SDS011;39400;49.744;7.012;2022-09-13T16:34:05;1.38;;;1.08;;
33453;SDS011;39400;49.744;7.012;2022-09-13T16:36:33;4.25;;;1.00;;
33453;SDS011;39400;49.744;7.012;2022-09-13T16:39:00;1.13;;;0.93;;
33453;SDS011;39400;49.744;7.012;2022-09-13T16:41:27;3.53;;;1.20;;
33453;SDS011;39400;49.744;7.012;2022-09-13T16:43:54;2.50;;;1.05;;
33453;SDS011;39400;49.744;7.012;2022-09-13T16:46:22;11.43;;;1.10;;
33453;SDS011;39400;49.744;7.012;2022-09-13T16:48:53;2.20;;;1.20;;
33453;SDS011;39400;49.744;7.012;2022-09-13T16:51:21;2.53;;;1.20;;
33453;SDS011;39400;49.744;7.012;2022-09-13T16:53:50;2.37;;;1.43;;
33453;SDS011;39400;49.744;7.012;2022-09-13T16:56:18;2.17;;;1.10;;
33453;SDS011;39400;49.744;7.012;2022-09-13T16:58:48;5.63;;;1.25;;
33453;SDS011;39400;49.744;7.012;2022-09-13T17:01:17;3.17;;;1.20;;
33453;SDS011;39400;49.744;7.012;2022-09-13T17:03:49;2.78;;;1.17;;
33453;SDS011;39400;49.744;7.012;2022-09-13T17:06:21;3.20;;;0.98;;
33453;SDS011;39400;49.744;7.012;2022-09-13T17:08:50;1.02;;;0.95;;
33453;SDS011;39400;49.744;7.012;2022-09-13T17:11:23;3.67;;;1.38;;
33453;SDS011;39400;49.744;7.012;2022-09-13T17:13:52;1.95;;;1.38;;
33453;SDS011;39400;49.744;7.012;2022-09-13T17:19:10;4.03;;;1.25;;
33453;SDS011;39400;49.744;7.012;2022-09-13T17:21:39;2.70;;;1.33;;
33453;SDS011;39400;49.744;7.012;2022-09-13T17:24:06;2.28;;;1.50;;
33453;SDS011;39400;49.744;7.012;2022-09-13T17:26:40;1.42;;;1.23;;
33453;SDS011;39400;49.744;7.012;2022-09-13T17:29:12;3.33;;;1.30;;
33453;SDS011;39400;49.744;7.012;2022-09-13T17:31:40;4.32;;;1.48;;
33453;SDS011;39400;49.744;7.012;2022-09-13T17:34:09;2.92;;;1.25;;
33453;SDS011;39400;49.744;7.012;2022-09-13T17:36:37;3.00;;;1.30;;
33453;SDS011;39400;49.744;7.012;2022-09-13T17:39:05;5.22;;;2.13;;
33453;SDS011;39400;49.744;7.012;2022-09-13T17:41:32;4.68;;;1.45;;
33453;SDS011;39400;49.744;7.012;2022-09-13T17:43:59;2.08;;;1.40;;
33453;SDS011;39400;49.744;7.012;2022-09-13T17:46:27;2.60;;;1.20;;
33453;SDS011;39400;49.744;7.012;2022-09-13T17:48:56;4.32;;;1.70;;
33453;SDS011;39400;49.744;7.012;2022-09-13T17:51:26;3.90;;;1.73;;
33453;SDS011;39400;49.744;7.012;2022-09-13T17:53:55;4.30;;;1.55;;
33453;SDS011;39400;49.744;7.012;2022-09-13T17:58:55;3.83;;;1.80;;
33453;SDS011;39400;49.744;7.012;2022-09-13T18:01:35;3.25;;;2.05;;
33453;SDS011;39400;49.744;7.012;2022-09-13T18:04:04;4.10;;;2.13;;
33453;SDS011;39400;49.744;7.012;2022-09-13T18:06:32;6.75;;;1.88;;
33453;SDS011;39400;49.744;7.012;2022-09-13T18:08:59;8.02;;;2.70;;
33453;SDS011;39400;49.744;7.012;2022-09-13T18:11:26;4.85;;;2.17;;
33453;SDS011;39400;49.744;7.012;2022-09-13T18:13:53;14.40;;;3.30;;
33453;SDS011;39400;49.744;7.012;2022-09-13T18:16:21;9.23;;;3.28;;
33453;SDS011;39400;49.744;7.012;2022-09-13T18:18:51;5.70;;;2.45;;
33453;SDS011;39400;49.744;7.012;2022-09-13T18:21:20;5.25;;;3.10;;
33453;SDS011;39400;49.744;7.012;2022-09-13T18:23:49;5.43;;;2.38;;
33453;SDS011;39400;49.744;7.012;2022-09-13T18:26:19;7.43;;;2.83;;
33453;SDS011;39400;49.744;7.012;2022-09-13T18:28:57;8.07;;;2.28;;
33453;SDS011;39400;49.744;7.012;2022-09-13T18:31:30;5.82;;;2.38;;
33453;SDS011;39400;49.744;7.012;2022-09-13T18:33:59;5.78;;;2.22;;
33453;SDS011;39400;49.744;7.012;2022-09-13T18:36:28;4.15;;;2.10;;
33453;SDS011;39400;49.744;7.012;2022-09-13T18:41:25;2.58;;;1.85;;
33453;SDS011;39400;49.744;7.012;2022-09-13T18:43:55;3.40;;;2.20;;
33453;SDS011;39400;49.744;7.012;2022-09-13T18:46:23;5.90;;;1.95;;
33453;SDS011;39400;49.744;7.012;2022-09-13T18:48:53;5.30;;;1.80;;
33453;SDS011;39400;49.744;7.012;2022-09-13T18:51:25;5.35;;;1.95;;
33453;SDS011;39400;49.744;7.012;2022-09-13T18:53:55;4.28;;;2.35;;
33453;SDS011;39400;49.744;7.012;2022-09-13T18:56:24;4.55;;;1.77;;